sensor_id;sensor_type;location;lat;lon;timestamp;P1;durP1;ratioP1;P2;durP2;ratioP2
39680;SDS011;26327;42.550;23.120;2022-09-30T05:16:04;31.92;;;15.38;;
39680;SDS011;26327;42.550;23.120;2022-09-30T05:18:31;28.38;;;14.40;;
39680;SDS011;26327;42.550;23.120;2022-09-30T05:20:58;23.33;;;14.05;;
39680;SDS011;26327;42.550;23.120;2022-09-30T05:23:24;29.42;;;15.85;;
39680;SDS011;26327;42.550;23.120;2022-09-30T05:25:51;30.15;;;15.60;;
39680;SDS011;26327;42.550;23.120;2022-09-30T05:28:17;31.33;;;14.63;;
39680;SDS011;26327;42.550;23.120;2022-09-30T05:30:43;23.92;;;15.15;;
39680;SDS011;26327;42.550;23.120;2022-09-30T05:33:09;32.03;;;15.43;;
39680;SDS011;26327;42.550;23.120;2022-09-30T05:35:38;26.95;;;16.30;;
39680;SDS011;26327;42.550;23.120;2022-09-30T05:38:05;34.08;;;16.42;;
39680;SDS011;26327;42.550;23.120;2022-09-30T05:40:31;36.03;;;16.98;;
39680;SDS011;26327;42.550;23.120;2022-09-30T05:42:57;32.55;;;15.25;;
39680;SDS011;26327;42.550;23.120;2022-09-30T05:45:24;30.08;;;16.13;;
39680;SDS011;26327;42.550;23.120;2022-09-30T05:47:51;23.45;;;14.90;;
39680;SDS011;26327;42.550;23.120;2022-09-30T05:50:17;26.10;;;13.95;;
39680;SDS011;26327;42.550;23.120;2022-09-30T05:52:43;26.50;;;13.82;;
39680;SDS011;26327;42.550;23.120;2022-09-30T05:55:08;27.02;;;14.00;;
39680;SDS011;26327;42.550;23.120;2022-09-30T05:57:34;24.02;;;13.85;;
39680;SDS011;26327;42.550;23.120;2022-09-30T06:00:00;31.60;;;13.43;;
39680;SDS011;26327;42.550;23.120;2022-09-30T06:02:25;25.10;;;13.25;;
39680;SDS011;26327;42.550;23.120;2022-09-30T06:04:51;27.10;;;14.40;;
39680;SDS011;26327;42.550;23.120;2022-09-30T06:07:16;23.05;;;12.65;;
39680;SDS011;26327;42.550;23.120;2022-09-30T06:09:41;31.17;;;12.98;;
39680;SDS011;26327;42.550;23.120;2022-09-30T06:12:07;24.13;;;12.32;;
39680;SDS011;26327;42.550;23.120;2022-09-30T06:14:33;26.60;;;13.25;;
39680;SDS011;26327;42.550;23.120;2022-09-30T06:16:58;32.20;;;12.25;;
39680;SDS011;26327;42.550;23.120;2022-09-30T06:19:26;20.30;;;11.27;;
39680;SDS011;26327;42.550;23.120;2022-09-30T06:21:54;23.55;;;11.10;;
39680;SDS011;26327;42.550;23.120;2022-09-30T06:24:20;24.80;;;10.70;;
39680;SDS011;26327;42.550;23.120;2022-09-30T06:26:45;24.58;;;10.60;;
39680;SDS011;26327;42.550;23.120;2022-09-30T06:29:10;23.58;;;9.82;;
39680;SDS011;26327;42.550;23.120;2022-09-30T06:31:36;27.17;;;10.57;;
39680;SDS011;26327;42.550;23.120;2022-09-30T06:34:01;21.33;;;10.13;;
39680;SDS011;26327;42.550;23.120;2022-09-30T06:36:27;26.30;;;10.05;;
39680;SDS011;26327;42.550;23.120;2022-09-30T06:38:53;23.27;;;9.02;;
39680;SDS011;26327;42.550;23.120;2022-09-30T06:41:19;22.08;;;9.55;;
39680;SDS011;26327;42.550;23.120;2022-09-30T06:43:45;22.30;;;8.02;;
39680;SDS011;26327;42.550;23.120;2022-09-30T06:46:11;23.33;;;9.43;;
39680;SDS011;26327;42.550;23.120;2022-09-30T06:48:37;18.77;;;9.10;;
39680;SDS011;26327;42.550;23.120;2022-09-30T06:51:04;20.02;;;7.95;;
39680;SDS011;26327;42.550;23.120;2022-09-30T06:53:30;24.23;;;8.68;;
39680;SDS011;26327;42.550;23.120;2022-09-30T06:55:55;17.27;;;7.22;;
39680;SDS011;26327;42.550;23.120;2022-09-30T06:58:21;20.00;;;7.15;;
39680;SDS011;26327;42.550;23.120;2022-09-30T07:00:55;23.63;;;7.00;;
39680;SDS011;26327;42.550;23.120;2022-09-30T07:03:23;22.50;;;7.22;;
39680;SDS011;26327;42.550;23.120;2022-09-30T07:06:08;11.00;;;5.80;;
39680;SDS011;26327;42.550;23.120;2022-09-30T07:08:35;14.07;;;5.90;;
39680;SDS011;26327;42.550;23.120;2022-09-30T07:11:10;17.98;;;5.75;;
39680;SDS011;26327;42.550;23.120;2022-09-30T07:13:45;15.90;;;5.22;;
39680;SDS011;26327;42.550;23.120;2022-09-30T07:16:11;12.15;;;5.25;;
39680;SDS011;26327;42.550;23.120;2022-09-30T07:18:38;12.20;;;5.22;;
39680;SDS011;26327;42.550;23.120;2022-09-30T07:21:06;11.45;;;4.63;;
39680;SDS011;26327;42.550;23.120;2022-09-30T07:23:32;10.82;;;4.40;;
39680;SDS011;26327;42.550;23.120;2022-09-30T07:25:58;12.30;;;5.07;;
39680;SDS011;26327;42.550;23.120;2022-09-30T07:28:28;10.60;;;4.60;;
39680;SDS011;26327;42.550;23.120;2022-09-30T07:30:57;9.23;;;4.20;;
39680;SDS011;26327;42.550;23.120;2022-09-30T07:33:24;10.38;;;4.30;;
39680;SDS011;26327;42.550;23.120;2022-09-30T07:35:55;11.20;;;4.30;;
39680;SDS011;26327;42.550;23.120;2022-09-30T07:38:22;10.05;;;4.45;;
39680;SDS011;26327;42.550;23.120;2022-09-30T07:41:00;8.50;;;4.40;;
39680;SDS011;26327;42.550;23.120;2022-09-30T07:43:33;7.80;;;4.25;;
39680;SDS011;26327;42.550;23.120;2022-09-30T07:46:06;9.55;;;4.32;;
39680;SDS011;26327;42.550;23.120;2022-09-30T07:48:34;9.73;;;4.80;;
39680;SDS011;26327;42.550;23.120;2022-09-30T07:53:44;11.63;;;4.97;;
39680;SDS011;26327;42.550;23.120;2022-09-30T07:56:11;9.50;;;4.05;;
39680;SDS011;26327;42.550;23.120;2022-09-30T07:58:38;10.48;;;3.58;;
39680;SDS011;26327;42.550;23.120;2022-09-30T08:01:05;5.13;;;3.30;;
39680;SDS011;26327;42.550;23.120;2022-09-30T08:03:34;10.40;;;4.35;;
39680;SDS011;26327;42.550;23.120;2022-09-30T08:06:06;10.00;;;3.45;;
39680;SDS011;26327;42.550;23.120;2022-09-30T08:08:34;7.28;;;3.70;;
39680;SDS011;26327;42.550;23.120;2022-09-30T08:11:00;7.50;;;4.22;;
39680;SDS011;26327;42.550;23.120;2022-09-30T08:13:26;6.90;;;3.88;;
39680;SDS011;26327;42.550;23.120;2022-09-30T08:15:51;10.00;;;3.75;;
39680;SDS011;26327;42.550;23.120;2022-09-30T08:18:17;8.48;;;3.90;;
39680;SDS011;26327;42.550;23.120;2022-09-30T08:20:42;7.10;;;3.42;;
39680;SDS011;26327;42.550;23.120;2022-09-30T08:23:07;9.88;;;3.72;;
39680;SDS011;26327;42.550;23.120;2022-09-30T08:25:33;7.35;;;3.28;;
39680;SDS011;26327;42.550;23.120;2022-09-30T08:27:59;9.10;;;3.83;;
39680;SDS011;26327;42.550;23.120;2022-09-30T08:30:24;8.65;;;3.65;;
39680;SDS011;26327;42.550;23.120;2022-09-30T08:32:50;7.80;;;3.53;;
39680;SDS011;26327;42.550;23.120;2022-09-30T08:35:15;7.88;;;3.58;;
39680;SDS011;26327;42.550;23.120;2022-09-30T08:37:41;6.93;;;3.58;;
39680;SDS011;26327;42.550;23.120;2022-09-30T08:40:08;11.43;;;3.78;;
39680;SDS011;26327;42.550;23.120;2022-09-30T08:46:00;9.00;;;4.03;;
39680;SDS011;26327;42.550;23.120;2022-09-30T08:48:44;10.05;;;3.90;;
39680;SDS011;26327;42.550;23.120;2022-09-30T08:54:02;7.55;;;3.03;;
39680;SDS011;26327;42.550;23.120;2022-09-30T08:56:33;10.02;;;3.53;;
39680;SDS011;26327;42.550;23.120;2022-09-30T09:02:21;11.77;;;3.40;;
39680;SDS011;26327;42.550;23.120;2022-09-30T09:04:51;7.65;;;3.35;;
39680;SDS011;26327;42.550;23.120;2022-09-30T09:18:14;8.05;;;3.50;;
39680;SDS011;26327;42.550;23.120;2022-09-30T09:20:52;9.27;;;3.38;;
39680;SDS011;26327;42.550;23.120;2022-09-30T09:23:19;8.00;;;3.00;;
39680;SDS011;26327;42.550;23.120;2022-09-30T09:25:46;8.43;;;3.50;;
39680;SDS011;26327;42.550;23.120;2022-09-30T09:31:15;8.68;;;3.03;;
39680;SDS011;26327;42.550;23.120;2022-09-30T09:33:43;6.97;;;3.25;;
39680;SDS011;26327;42.550;23.120;2022-09-30T09:36:24;7.85;;;3.50;;
39680;SDS011;26327;42.550;23.120;2022-09-30T09:42:16;8.70;;;3.53;;
39680;SDS011;26327;42.550;23.120;2022-09-30T09:45:38;9.82;;;3.28;;
39680;SDS011;26327;42.550;23.120;2022-09-30T09:48:09;15.10;;;4.78;;
39680;SDS011;26327;42.550;23.120;2022-09-30T09:55:57;8.68;;;2.88;;
39680;SDS011;26327;42.550;23.120;2022-09-30T09:58:24;12.13;;;3.42;;
39680;SDS011;26327;42.550;23.120;2022-09-30T10:00:50;15.98;;;3.28;;
39680;SDS011;26327;42.550;23.120;2022-09-30T10:03:20;8.30;;;3.10;;
39680;SDS011;26327;42.550;23.120;2022-09-30T10:05:57;10.23;;;3.15;;
39680;SDS011;26327;42.550;23.120;2022-09-30T10:08:26;13.45;;;3.22;;
39680;SDS011;26327;42.550;23.120;2022-09-30T10:10:56;8.02;;;2.90;;
39680;SDS011;26327;42.550;23.120;2022-09-30T10:13:29;11.18;;;3.28;;
39680;SDS011;26327;42.550;23.120;2022-09-30T10:15:58;9.25;;;3.00;;
39680;SDS011;26327;42.550;23.120;2022-09-30T10:18:35;7.75;;;2.90;;
39680;SDS011;26327;42.550;23.120;2022-09-30T10:21:04;10.57;;;2.97;;
39680;SDS011;26327;42.550;23.120;2022-09-30T10:23:42;8.73;;;2.90;;
39680;SDS011;26327;42.550;23.120;2022-09-30T10:28:55;6.63;;;2.45;;
39680;SDS011;26327;42.550;23.120;2022-09-30T10:33:56;5.07;;;1.90;;
39680;SDS011;26327;42.550;23.120;2022-09-30T10:36:35;6.20;;;1.73;;
39680;SDS011;26327;42.550;23.120;2022-09-30T10:39:05;3.70;;;1.90;;
39680;SDS011;26327;42.550;23.120;2022-09-30T10:41:59;3.75;;;1.95;;
39680;SDS011;26327;42.550;23.120;2022-09-30T10:44:35;6.78;;;2.22;;
39680;SDS011;26327;42.550;23.120;2022-09-30T10:47:08;4.63;;;2.10;;
39680;SDS011;26327;42.550;23.120;2022-09-30T10:49:48;7.00;;;2.40;;
39680;SDS011;26327;42.550;23.120;2022-09-30T10:52:33;6.00;;;1.90;;
39680;SDS011;26327;42.550;23.120;2022-09-30T10:55:31;5.28;;;2.35;;
39680;SDS011;26327;42.550;23.120;2022-09-30T11:01:19;3.38;;;1.55;;
39680;SDS011;26327;42.550;23.120;2022-09-30T11:03:54;2.30;;;1.50;;
39680;SDS011;26327;42.550;23.120;2022-09-30T11:06:20;4.22;;;1.50;;
39680;SDS011;26327;42.550;23.120;2022-09-30T11:09:02;2.92;;;1.60;;
39680;SDS011;26327;42.550;23.120;2022-09-30T11:11:49;3.70;;;1.50;;
39680;SDS011;26327;42.550;23.120;2022-09-30T11:14:34;2.42;;;1.40;;
39680;SDS011;26327;42.550;23.120;2022-09-30T11:25:04;2.65;;;1.63;;
39680;SDS011;26327;42.550;23.120;2022-09-30T11:30:30;4.30;;;1.80;;
39680;SDS011;26327;42.550;23.120;2022-09-30T11:46:44;3.00;;;1.50;;
39680;SDS011;26327;42.550;23.120;2022-09-30T11:58:04;4.15;;;2.03;;
39680;SDS011;26327;42.550;23.120;2022-09-30T12:00:33;8.13;;;3.97;;
39680;SDS011;26327;42.550;23.120;2022-09-30T12:03:05;12.93;;;7.03;;
39680;SDS011;26327;42.550;23.120;2022-09-30T12:10:50;9.93;;;2.53;;
39680;SDS011;26327;42.550;23.120;2022-09-30T12:15:49;3.88;;;2.35;;
39680;SDS011;26327;42.550;23.120;2022-09-30T12:18:16;2.55;;;1.70;;
39680;SDS011;26327;42.550;23.120;2022-09-30T12:23:19;3.60;;;1.50;;
39680;SDS011;26327;42.550;23.120;2022-09-30T12:25:53;2.22;;;1.30;;
39680;SDS011;26327;42.550;23.120;2022-09-30T12:48:12;3.10;;;1.40;;
39680;SDS011;26327;42.550;23.120;2022-09-30T12:50:49;2.40;;;1.27;;
39680;SDS011;26327;42.550;23.120;2022-09-30T12:53:23;4.18;;;1.58;;
39680;SDS011;26327;42.550;23.120;2022-09-30T12:55:52;3.42;;;1.50;;
39680;SDS011;26327;42.550;23.120;2022-09-30T13:00:58;2.75;;;1.45;;
39680;SDS011;26327;42.550;23.120;2022-09-30T13:03:25;2.80;;;1.30;;
39680;SDS011;26327;42.550;23.120;2022-09-30T13:05:52;2.78;;;1.48;;
39680;SDS011;26327;42.550;23.120;2022-09-30T13:10:54;2.72;;;1.50;;
39680;SDS011;26327;42.550;23.120;2022-09-30T13:13:26;2.85;;;1.40;;
39680;SDS011;26327;42.550;23.120;2022-09-30T13:15:58;3.95;;;1.73;;
39680;SDS011;26327;42.550;23.120;2022-09-30T13:23:44;4.18;;;1.50;;
39680;SDS011;26327;42.550;23.120;2022-09-30T13:31:26;4.43;;;1.50;;
39680;SDS011;26327;42.550;23.120;2022-09-30T13:39:16;2.88;;;1.60;;
39680;SDS011;26327;42.550;23.120;2022-09-30T13:41:42;3.95;;;1.50;;
39680;SDS011;26327;42.550;23.120;2022-09-30T13:44:13;4.90;;;1.50;;
39680;SDS011;26327;42.550;23.120;2022-09-30T13:49:20;2.95;;;1.40;;
39680;SDS011;26327;42.550;23.120;2022-09-30T13:51:50;4.15;;;1.42;;
39680;SDS011;26327;42.550;23.120;2022-09-30T13:56:55;3.50;;;1.35;;
39680;SDS011;26327;42.550;23.120;2022-09-30T14:10:51;2.63;;;1.30;;
39680;SDS011;26327;42.550;23.120;2022-09-30T14:13:45;2.05;;;1.30;;
39680;SDS011;26327;42.550;23.120;2022-09-30T14:21:42;5.60;;;1.40;;
39680;SDS011;26327;42.550;23.120;2022-09-30T14:24:16;3.25;;;1.50;;
39680;SDS011;26327;42.550;23.120;2022-09-30T14:32:47;4.15;;;1.48;;
39680;SDS011;26327;42.550;23.120;2022-09-30T14:37:47;3.47;;;1.40;;
39680;SDS011;26327;42.550;23.120;2022-09-30T14:40:38;3.55;;;1.25;;
39680;SDS011;26327;42.550;23.120;2022-09-30T14:43:06;3.43;;;1.47;;
39680;SDS011;26327;42.550;23.120;2022-09-30T14:45:40;2.17;;;1.23;;
39680;SDS011;26327;42.550;23.120;2022-09-30T14:48:10;2.92;;;1.35;;
39680;SDS011;26327;42.550;23.120;2022-09-30T14:50:45;3.42;;;1.45;;
39680;SDS011;26327;42.550;23.120;2022-09-30T14:53:24;3.50;;;1.30;;
39680;SDS011;26327;42.550;23.120;2022-09-30T14:55:51;4.07;;;2.47;;
39680;SDS011;26327;42.550;23.120;2022-09-30T14:58:27;7.38;;;3.00;;
39680;SDS011;26327;42.550;23.120;2022-09-30T15:01:14;6.03;;;2.22;;
39680;SDS011;26327;42.550;23.120;2022-09-30T15:03:53;4.25;;;2.88;;
39680;SDS011;26327;42.550;23.120;2022-09-30T15:06:22;3.70;;;2.40;;
39680;SDS011;26327;42.550;23.120;2022-09-30T15:08:59;6.22;;;3.17;;
39680;SDS011;26327;42.550;23.120;2022-09-30T15:11:27;6.65;;;3.25;;
39680;SDS011;26327;42.550;23.120;2022-09-30T15:13:57;4.28;;;2.05;;
39680;SDS011;26327;42.550;23.120;2022-09-30T15:16:29;3.10;;;1.77;;
39680;SDS011;26327;42.550;23.120;2022-09-30T15:18:56;8.57;;;5.45;;
39680;SDS011;26327;42.550;23.120;2022-09-30T15:21:23;3.35;;;1.48;;
39680;SDS011;26327;42.550;23.120;2022-09-30T15:23:51;3.30;;;1.40;;
39680;SDS011;26327;42.550;23.120;2022-09-30T15:26:22;5.43;;;1.90;;
39680;SDS011;26327;42.550;23.120;2022-09-30T15:28:49;3.17;;;1.75;;
39680;SDS011;26327;42.550;23.120;2022-09-30T15:34:04;3.10;;;1.63;;
39680;SDS011;26327;42.550;23.120;2022-09-30T15:36:37;4.20;;;2.15;;
39680;SDS011;26327;42.550;23.120;2022-09-30T15:39:03;4.95;;;2.10;;
39680;SDS011;26327;42.550;23.120;2022-09-30T15:41:36;6.22;;;3.72;;
39680;SDS011;26327;42.550;23.120;2022-09-30T15:44:03;6.82;;;3.20;;
39680;SDS011;26327;42.550;23.120;2022-09-30T15:46:41;6.78;;;2.55;;
39680;SDS011;26327;42.550;23.120;2022-09-30T15:49:32;5.97;;;2.70;;
39680;SDS011;26327;42.550;23.120;2022-09-30T15:55:00;9.60;;;3.25;;
39680;SDS011;26327;42.550;23.120;2022-09-30T16:05:43;9.75;;;2.88;;
39680;SDS011;26327;42.550;23.120;2022-09-30T16:08:09;8.70;;;3.42;;
39680;SDS011;26327;42.550;23.120;2022-09-30T16:10:50;12.13;;;4.07;;
39680;SDS011;26327;42.550;23.120;2022-09-30T16:13:24;8.32;;;4.00;;
39680;SDS011;26327;42.550;23.120;2022-09-30T16:15:53;6.53;;;3.97;;
39680;SDS011;26327;42.550;23.120;2022-09-30T16:18:26;13.10;;;4.50;;
39680;SDS011;26327;42.550;23.120;2022-09-30T16:20:57;7.40;;;3.65;;
39680;SDS011;26327;42.550;23.120;2022-09-30T16:23:30;9.00;;;4.20;;
39680;SDS011;26327;42.550;23.120;2022-09-30T16:28:41;19.02;;;11.35;;
39680;SDS011;26327;42.550;23.120;2022-09-30T16:31:10;20.92;;;13.70;;
39680;SDS011;26327;42.550;23.120;2022-09-30T16:33:39;36.65;;;24.48;;
39680;SDS011;26327;42.550;23.120;2022-09-30T16:38:33;12.85;;;8.70;;
39680;SDS011;26327;42.550;23.120;2022-09-30T16:41:02;11.75;;;7.43;;
39680;SDS011;26327;42.550;23.120;2022-09-30T16:43:29;13.27;;;10.23;;
39680;SDS011;26327;42.550;23.120;2022-09-30T16:45:56;14.00;;;5.50;;
39680;SDS011;26327;42.550;23.120;2022-09-30T16:48:24;8.63;;;4.53;;
39680;SDS011;26327;42.550;23.120;2022-09-30T16:53:39;7.88;;;2.97;;
39680;SDS011;26327;42.550;23.120;2022-09-30T16:56:07;6.05;;;3.40;;
39680;SDS011;26327;42.550;23.120;2022-09-30T16:58:42;6.75;;;3.67;;
39680;SDS011;26327;42.550;23.120;2022-09-30T17:01:18;5.72;;;3.53;;
39680;SDS011;26327;42.550;23.120;2022-09-30T17:03:45;8.27;;;3.70;;
39680;SDS011;26327;42.550;23.120;2022-09-30T17:06:12;7.78;;;4.38;;
39680;SDS011;26327;42.550;23.120;2022-09-30T17:11:07;9.02;;;4.30;;
39680;SDS011;26327;42.550;23.120;2022-09-30T17:13:34;9.50;;;4.75;;
39680;SDS011;26327;42.550;23.120;2022-09-30T17:16:02;10.90;;;4.53;;
39680;SDS011;26327;42.550;23.120;2022-09-30T17:18:28;8.75;;;3.63;;
39680;SDS011;26327;42.550;23.120;2022-09-30T17:20:53;11.60;;;4.20;;
39680;SDS011;26327;42.550;23.120;2022-09-30T17:23:21;7.78;;;3.75;;
39680;SDS011;26327;42.550;23.120;2022-09-30T17:25:48;8.32;;;4.40;;
39680;SDS011;26327;42.550;23.120;2022-09-30T17:28:14;8.60;;;5.28;;
39680;SDS011;26327;42.550;23.120;2022-09-30T17:30:40;7.72;;;4.10;;
39680;SDS011;26327;42.550;23.120;2022-09-30T17:33:08;9.48;;;3.88;;
39680;SDS011;26327;42.550;23.120;2022-09-30T17:35:34;6.28;;;3.45;;
39680;SDS011;26327;42.550;23.120;2022-09-30T17:38:04;7.97;;;5.20;;
39680;SDS011;26327;42.550;23.120;2022-09-30T17:40:31;7.57;;;4.07;;
39680;SDS011;26327;42.550;23.120;2022-09-30T17:43:15;10.73;;;3.60;;
39680;SDS011;26327;42.550;23.120;2022-09-30T17:45:41;7.22;;;3.47;;
39680;SDS011;26327;42.550;23.120;2022-09-30T17:48:10;8.77;;;4.40;;
39680;SDS011;26327;42.550;23.120;2022-09-30T17:50:40;8.43;;;4.28;;
39680;SDS011;26327;42.550;23.120;2022-09-30T17:53:09;7.05;;;4.70;;
39680;SDS011;26327;42.550;23.120;2022-09-30T17:55:37;11.65;;;4.20;;
39680;SDS011;26327;42.550;23.120;2022-09-30T17:58:05;6.13;;;3.20;;
39680;SDS011;26327;42.550;23.120;2022-09-30T18:00:31;7.07;;;4.35;;
39680;SDS011;26327;42.550;23.120;2022-09-30T18:02:57;10.32;;;4.78;;
39680;SDS011;26327;42.550;23.120;2022-09-30T18:05:23;7.20;;;4.15;;
39680;SDS011;26327;42.550;23.120;2022-09-30T18:07:52;5.60;;;3.42;;
39680;SDS011;26327;42.550;23.120;2022-09-30T18:10:17;6.75;;;3.70;;
39680;SDS011;26327;42.550;23.120;2022-09-30T18:12:43;6.63;;;3.90;;
39680;SDS011;26327;42.550;23.120;2022-09-30T18:15:13;4.60;;;3.38;;
39680;SDS011;26327;42.550;23.120;2022-09-30T18:17:40;7.43;;;4.10;;
39680;SDS011;26327;42.550;23.120;2022-09-30T18:20:06;8.70;;;3.92;;
39680;SDS011;26327;42.550;23.120;2022-09-30T18:22:31;5.93;;;3.45;;
39680;SDS011;26327;42.550;23.120;2022-09-30T18:24:57;9.43;;;4.13;;
39680;SDS011;26327;42.550;23.120;2022-09-30T18:27:41;8.15;;;5.38;;
39680;SDS011;26327;42.550;23.120;2022-09-30T18:30:06;6.75;;;5.07;;
39680;SDS011;26327;42.550;23.120;2022-09-30T18:32:32;6.40;;;4.32;;
39680;SDS011;26327;42.550;23.120;2022-09-30T18:34:58;10.55;;;5.07;;
39680;SDS011;26327;42.550;23.120;2022-09-30T18:37:24;8.73;;;4.35;;
39680;SDS011;26327;42.550;23.120;2022-09-30T18:39:52;7.13;;;4.40;;
39680;SDS011;26327;42.550;23.120;2022-09-30T18:42:17;8.45;;;3.97;;
39680;SDS011;26327;42.550;23.120;2022-09-30T18:44:44;7.63;;;4.93;;
39680;SDS011;26327;42.550;23.120;2022-09-30T18:47:15;8.23;;;4.28;;
39680;SDS011;26327;42.550;23.120;2022-09-30T18:49:41;6.07;;;4.05;;
39680;SDS011;26327;42.550;23.120;2022-09-30T18:52:07;5.20;;;4.03;;
39680;SDS011;26327;42.550;23.120;2022-09-30T18:54:33;7.30;;;3.50;;
39680;SDS011;26327;42.550;23.120;2022-09-30T18:56:58;5.00;;;3.70;;
39680;SDS011;26327;42.550;23.120;2022-09-30T18:59:24;5.22;;;3.53;;
39680;SDS011;26327;42.550;23.120;2022-09-30T19:01:50;5.03;;;3.00;;
39680;SDS011;26327;42.550;23.120;2022-09-30T19:04:16;6.47;;;3.72;;
39680;SDS011;26327;42.550;23.120;2022-09-30T19:06:42;7.78;;;3.20;;
39680;SDS011;26327;42.550;23.120;2022-09-30T19:09:08;6.63;;;3.05;;
39680;SDS011;26327;42.550;23.120;2022-09-30T19:11:34;8.10;;;3.13;;
39680;SDS011;26327;42.550;23.120;2022-09-30T19:14:01;7.18;;;3.25;;
39680;SDS011;26327;42.550;23.120;2022-09-30T19:16:30;6.22;;;3.10;;
39680;SDS011;26327;42.550;23.120;2022-09-30T19:18:59;10.37;;;3.40;;
39680;SDS011;26327;42.550;23.120;2022-09-30T19:21:28;6.88;;;2.90;;
39680;SDS011;26327;42.550;23.120;2022-09-30T19:23:57;4.75;;;3.33;;
39680;SDS011;26327;42.550;23.120;2022-09-30T19:26:25;5.63;;;3.25;;
39680;SDS011;26327;42.550;23.120;2022-09-30T19:28:54;5.75;;;3.47;;
39680;SDS011;26327;42.550;23.120;2022-09-30T19:31:20;8.95;;;3.67;;
39680;SDS011;26327;42.550;23.120;2022-09-30T19:33:46;7.18;;;3.13;;
39680;SDS011;26327;42.550;23.120;2022-09-30T19:36:13;6.93;;;3.03;;
39680;SDS011;26327;42.550;23.120;2022-09-30T19:38:39;7.10;;;3.08;;
39680;SDS011;26327;42.550;23.120;2022-09-30T19:41:06;7.63;;;3.53;;
39680;SDS011;26327;42.550;23.120;2022-09-30T19:43:33;9.95;;;4.20;;
39680;SDS011;26327;42.550;23.120;2022-09-30T19:46:00;5.95;;;3.28;;
39680;SDS011;26327;42.550;23.120;2022-09-30T19:48:27;6.07;;;3.25;;
39680;SDS011;26327;42.550;23.120;2022-09-30T19:50:55;6.20;;;3.72;;
39680;SDS011;26327;42.550;23.120;2022-09-30T19:53:41;7.75;;;3.65;;
39680;SDS011;26327;42.550;23.120;2022-09-30T19:58:40;6.53;;;3.40;;
39680;SDS011;26327;42.550;23.120;2022-09-30T20:01:08;6.85;;;3.58;;
39680;SDS011;26327;42.550;23.120;2022-09-30T20:03:34;5.70;;;3.70;;
39680;SDS011;26327;42.550;23.120;2022-09-30T20:06:05;11.13;;;4.93;;
39680;SDS011;26327;42.550;23.120;2022-09-30T20:08:33;5.68;;;3.90;;
39680;SDS011;26327;42.550;23.120;2022-09-30T20:11:03;7.88;;;3.75;;
39680;SDS011;26327;42.550;23.120;2022-09-30T20:13:33;10.07;;;3.75;;
39680;SDS011;26327;42.550;23.120;2022-09-30T20:16:03;6.55;;;3.75;;
39680;SDS011;26327;42.550;23.120;2022-09-30T20:18:33;8.38;;;3.58;;
39680;SDS011;26327;42.550;23.120;2022-09-30T20:20:59;8.20;;;4.05;;
39680;SDS011;26327;42.550;23.120;2022-09-30T20:23:24;6.22;;;4.07;;
39680;SDS011;26327;42.550;23.120;2022-09-30T20:25:51;5.82;;;3.55;;
39680;SDS011;26327;42.550;23.120;2022-09-30T20:28:18;6.60;;;4.43;;
39680;SDS011;26327;42.550;23.120;2022-09-30T20:30:45;10.68;;;4.28;;
39680;SDS011;26327;42.550;23.120;2022-09-30T20:33:12;5.63;;;3.60;;
39680;SDS011;26327;42.550;23.120;2022-09-30T20:35:44;7.95;;;4.10;;
39680;SDS011;26327;42.550;23.120;2022-09-30T20:38:11;8.50;;;3.88;;
39680;SDS011;26327;42.550;23.120;2022-09-30T20:40:38;7.50;;;4.82;;
39680;SDS011;26327;42.550;23.120;2022-09-30T20:43:04;7.57;;;4.07;;
39680;SDS011;26327;42.550;23.120;2022-09-30T20:45:31;7.07;;;4.82;;
39680;SDS011;26327;42.550;23.120;2022-09-30T20:47:56;11.95;;;4.80;;
39680;SDS011;26327;42.550;23.120;2022-09-30T20:50:22;8.88;;;4.68;;
39680;SDS011;26327;42.550;23.120;2022-09-30T20:53:07;6.22;;;4.47;;
39680;SDS011;26327;42.550;23.120;2022-09-30T20:55:37;6.55;;;4.60;;
39680;SDS011;26327;42.550;23.120;2022-09-30T20:58:04;8.77;;;5.28;;
39680;SDS011;26327;42.550;23.120;2022-09-30T21:00:35;6.57;;;5.05;;
39680;SDS011;26327;42.550;23.120;2022-09-30T21:03:03;9.52;;;4.70;;
39680;SDS011;26327;42.550;23.120;2022-09-30T21:05:30;6.40;;;4.38;;
39680;SDS011;26327;42.550;23.120;2022-09-30T21:07:57;6.95;;;4.60;;
39680;SDS011;26327;42.550;23.120;2022-09-30T21:10:28;9.35;;;4.68;;
39680;SDS011;26327;42.550;23.120;2022-09-30T21:12:57;7.65;;;4.40;;
39680;SDS011;26327;42.550;23.120;2022-09-30T21:15:25;10.07;;;5.43;;
39680;SDS011;26327;42.550;23.120;2022-09-30T21:17:52;7.00;;;4.50;;
39680;SDS011;26327;42.550;23.120;2022-09-30T21:20:19;7.15;;;4.90;;
39680;SDS011;26327;42.550;23.120;2022-09-30T21:22:45;8.80;;;5.10;;
39680;SDS011;26327;42.550;23.120;2022-09-30T21:25:10;6.75;;;5.00;;
39680;SDS011;26327;42.550;23.120;2022-09-30T21:27:37;9.65;;;5.13;;
39680;SDS011;26327;42.550;23.120;2022-09-30T21:30:03;12.95;;;5.65;;
39680;SDS011;26327;42.550;23.120;2022-09-30T21:32:30;14.80;;;5.65;;
39680;SDS011;26327;42.550;23.120;2022-09-30T21:34:56;8.50;;;5.13;;
39680;SDS011;26327;42.550;23.120;2022-09-30T21:37:22;8.30;;;5.50;;
